ΕΜΥ, Εθνική Μετεωρολογική Υπηρεσία - Δελτία Καιρού, Προγνώσεις

ΑΕΡΟΝΑΥΤΙΛΙΑ

GREEK AIRPORTS CODES

LGST 011500Z 06007KT 9999 FEW018 SCT080 22/16 Q1010 RMK BKN180=

EUROPEAN AIRPORTS CODES

LFPO 011530Z 02009KT 340V070 CAVOK 26/12 Q1017 NOSIG=